sensor_id;sensor_type;location;lat;lon;timestamp;P1;durP1;ratioP1;P2;durP2;ratioP2
60999;SDS011;46879;45.658;11.814;2022-10-01T00:03:16;1.35;;;1.13;;
60999;SDS011;46879;45.658;11.814;2022-10-01T00:08:16;1.75;;;1.00;;
60999;SDS011;46879;45.658;11.814;2022-10-01T00:13:17;2.38;;;1.05;;
60999;SDS011;46879;45.658;11.814;2022-10-01T00:18:17;2.83;;;1.17;;
60999;SDS011;46879;45.658;11.814;2022-10-01T00:23:17;1.63;;;1.20;;
60999;SDS011;46879;45.658;11.814;2022-10-01T00:28:18;1.88;;;0.98;;
60999;SDS011;46879;45.658;11.814;2022-10-01T00:33:19;1.60;;;1.00;;
60999;SDS011;46879;45.658;11.814;2022-10-01T00:38:19;1.30;;;1.20;;
60999;SDS011;46879;45.658;11.814;2022-10-01T00:43:24;2.33;;;1.10;;
60999;SDS011;46879;45.658;11.814;2022-10-01T00:48:24;0.88;;;0.88;;
60999;SDS011;46879;45.658;11.814;2022-10-01T00:53:27;1.95;;;0.95;;
60999;SDS011;46879;45.658;11.814;2022-10-01T00:58:28;1.48;;;1.00;;
60999;SDS011;46879;45.658;11.814;2022-10-01T01:03:28;0.90;;;0.90;;
60999;SDS011;46879;45.658;11.814;2022-10-01T01:08:29;1.40;;;1.00;;
60999;SDS011;46879;45.658;11.814;2022-10-01T01:13:36;1.70;;;0.90;;
60999;SDS011;46879;45.658;11.814;2022-10-01T01:18:41;1.17;;;1.05;;
60999;SDS011;46879;45.658;11.814;2022-10-01T01:29:04;1.13;;;1.00;;
60999;SDS011;46879;45.658;11.814;2022-10-01T01:34:06;2.22;;;1.10;;
60999;SDS011;46879;45.658;11.814;2022-10-01T01:39:12;2.53;;;1.27;;
60999;SDS011;46879;45.658;11.814;2022-10-01T01:44:13;1.08;;;0.82;;
60999;SDS011;46879;45.658;11.814;2022-10-01T01:49:15;1.00;;;0.90;;
60999;SDS011;46879;45.658;11.814;2022-10-01T01:54:17;0.93;;;0.88;;
60999;SDS011;46879;45.658;11.814;2022-10-01T01:59:18;0.90;;;0.90;;
60999;SDS011;46879;45.658;11.814;2022-10-01T02:04:21;0.95;;;0.82;;
60999;SDS011;46879;45.658;11.814;2022-10-01T02:09:26;1.10;;;1.00;;
60999;SDS011;46879;45.658;11.814;2022-10-01T02:14:35;3.03;;;1.25;;
60999;SDS011;46879;45.658;11.814;2022-10-01T02:19:56;1.55;;;1.00;;
60999;SDS011;46879;45.658;11.814;2022-10-01T02:25:00;1.10;;;1.00;;
60999;SDS011;46879;45.658;11.814;2022-10-01T02:30:02;3.50;;;1.08;;
60999;SDS011;46879;45.658;11.814;2022-10-01T02:35:06;1.00;;;0.90;;
60999;SDS011;46879;45.658;11.814;2022-10-01T02:40:08;1.40;;;1.08;;
60999;SDS011;46879;45.658;11.814;2022-10-01T02:45:12;1.65;;;0.95;;
60999;SDS011;46879;45.658;11.814;2022-10-01T02:50:12;4.93;;;1.25;;
60999;SDS011;46879;45.658;11.814;2022-10-01T02:55:16;1.30;;;0.90;;
60999;SDS011;46879;45.658;11.814;2022-10-01T03:00:17;1.50;;;1.00;;
60999;SDS011;46879;45.658;11.814;2022-10-01T03:05:20;1.33;;;0.90;;
60999;SDS011;46879;45.658;11.814;2022-10-01T03:10:21;1.20;;;1.10;;
60999;SDS011;46879;45.658;11.814;2022-10-01T03:15:21;1.20;;;0.80;;
60999;SDS011;46879;45.658;11.814;2022-10-01T03:20:22;2.15;;;0.93;;
60999;SDS011;46879;45.658;11.814;2022-10-01T03:25:22;1.27;;;1.00;;
60999;SDS011;46879;45.658;11.814;2022-10-01T03:30:23;0.98;;;0.80;;
60999;SDS011;46879;45.658;11.814;2022-10-01T03:35:23;1.25;;;0.98;;
60999;SDS011;46879;45.658;11.814;2022-10-01T03:40:23;0.85;;;0.80;;
60999;SDS011;46879;45.658;11.814;2022-10-01T03:45:24;2.57;;;0.93;;
60999;SDS011;46879;45.658;11.814;2022-10-01T03:50:24;1.00;;;1.00;;
60999;SDS011;46879;45.658;11.814;2022-10-01T03:55:24;1.48;;;0.90;;
60999;SDS011;46879;45.658;11.814;2022-10-01T04:00:25;0.98;;;0.90;;
60999;SDS011;46879;45.658;11.814;2022-10-01T04:05:25;1.45;;;1.08;;
60999;SDS011;46879;45.658;11.814;2022-10-01T04:10:25;1.10;;;0.95;;
60999;SDS011;46879;45.658;11.814;2022-10-01T04:15:26;1.53;;;1.00;;
60999;SDS011;46879;45.658;11.814;2022-10-01T04:20:27;0.75;;;0.75;;
60999;SDS011;46879;45.658;11.814;2022-10-01T04:25:27;0.98;;;0.90;;
60999;SDS011;46879;45.658;11.814;2022-10-01T04:30:32;0.90;;;0.90;;
60999;SDS011;46879;45.658;11.814;2022-10-01T04:35:32;1.70;;;0.85;;
60999;SDS011;46879;45.658;11.814;2022-10-01T04:40:34;2.72;;;1.10;;
60999;SDS011;46879;45.658;11.814;2022-10-01T04:45:35;0.80;;;0.80;;
60999;SDS011;46879;45.658;11.814;2022-10-01T04:50:36;1.38;;;0.85;;
60999;SDS011;46879;45.658;11.814;2022-10-01T04:55:36;1.10;;;1.00;;
60999;SDS011;46879;45.658;11.814;2022-10-01T05:00:36;0.90;;;0.90;;
60999;SDS011;46879;45.658;11.814;2022-10-01T05:05:37;1.02;;;0.90;;
60999;SDS011;46879;45.658;11.814;2022-10-01T05:10:37;0.85;;;0.85;;
60999;SDS011;46879;45.658;11.814;2022-10-01T05:15:38;0.90;;;0.83;;
60999;SDS011;46879;45.658;11.814;2022-10-01T05:20:38;0.95;;;0.73;;
60999;SDS011;46879;45.658;11.814;2022-10-01T05:25:38;1.33;;;0.95;;
60999;SDS011;46879;45.658;11.814;2022-10-01T05:30:39;2.20;;;0.90;;
60999;SDS011;46879;45.658;11.814;2022-10-01T05:35:39;1.30;;;0.90;;
60999;SDS011;46879;45.658;11.814;2022-10-01T05:40:43;1.45;;;0.90;;
60999;SDS011;46879;45.658;11.814;2022-10-01T05:45:43;0.80;;;0.80;;
60999;SDS011;46879;45.658;11.814;2022-10-01T05:50:44;2.08;;;1.02;;
60999;SDS011;46879;45.658;11.814;2022-10-01T05:55:45;1.20;;;0.80;;
60999;SDS011;46879;45.658;11.814;2022-10-01T06:00:46;0.82;;;0.82;;
60999;SDS011;46879;45.658;11.814;2022-10-01T06:05:46;1.27;;;1.00;;
60999;SDS011;46879;45.658;11.814;2022-10-01T06:10:46;0.82;;;0.82;;
60999;SDS011;46879;45.658;11.814;2022-10-01T06:15:47;1.10;;;0.95;;
60999;SDS011;46879;45.658;11.814;2022-10-01T06:20:50;0.98;;;0.68;;
60999;SDS011;46879;45.658;11.814;2022-10-01T06:25:51;1.42;;;0.90;;
60999;SDS011;46879;45.658;11.814;2022-10-01T06:30:51;0.82;;;0.70;;
60999;SDS011;46879;45.658;11.814;2022-10-01T06:35:51;1.10;;;1.00;;
60999;SDS011;46879;45.658;11.814;2022-10-01T06:40:56;1.00;;;0.90;;
60999;SDS011;46879;45.658;11.814;2022-10-01T06:45:59;0.98;;;0.82;;
60999;SDS011;46879;45.658;11.814;2022-10-01T06:50:59;2.70;;;0.80;;
60999;SDS011;46879;45.658;11.814;2022-10-01T06:56:03;1.45;;;0.90;;
60999;SDS011;46879;45.658;11.814;2022-10-01T07:01:04;4.97;;;1.42;;
60999;SDS011;46879;45.658;11.814;2022-10-01T07:06:04;2.15;;;1.33;;
60999;SDS011;46879;45.658;11.814;2022-10-01T07:11:07;2.88;;;1.42;;
60999;SDS011;46879;45.658;11.814;2022-10-01T07:16:07;2.78;;;1.42;;
60999;SDS011;46879;45.658;11.814;2022-10-01T07:21:08;2.42;;;1.58;;
60999;SDS011;46879;45.658;11.814;2022-10-01T07:26:17;3.65;;;2.00;;
60999;SDS011;46879;45.658;11.814;2022-10-01T07:31:17;3.70;;;1.80;;
60999;SDS011;46879;45.658;11.814;2022-10-01T07:36:18;1.97;;;1.60;;
60999;SDS011;46879;45.658;11.814;2022-10-01T07:41:18;4.97;;;1.80;;
60999;SDS011;46879;45.658;11.814;2022-10-01T07:46:18;6.55;;;2.00;;
60999;SDS011;46879;45.658;11.814;2022-10-01T07:51:19;2.63;;;1.83;;
60999;SDS011;46879;45.658;11.814;2022-10-01T07:56:19;2.92;;;2.13;;
60999;SDS011;46879;45.658;11.814;2022-10-01T08:01:20;9.70;;;2.25;;
60999;SDS011;46879;45.658;11.814;2022-10-01T08:06:23;3.47;;;2.10;;
60999;SDS011;46879;45.658;11.814;2022-10-01T08:11:23;6.07;;;1.90;;
60999;SDS011;46879;45.658;11.814;2022-10-01T08:16:24;3.30;;;1.98;;
60999;SDS011;46879;45.658;11.814;2022-10-01T08:21:27;16.65;;;2.58;;
60999;SDS011;46879;45.658;11.814;2022-10-01T08:26:28;7.30;;;2.50;;
60999;SDS011;46879;45.658;11.814;2022-10-01T08:31:28;7.38;;;2.60;;
60999;SDS011;46879;45.658;11.814;2022-10-01T08:36:29;5.75;;;2.35;;
60999;SDS011;46879;45.658;11.814;2022-10-01T08:41:35;9.55;;;2.83;;
60999;SDS011;46879;45.658;11.814;2022-10-01T08:46:37;9.95;;;2.92;;
60999;SDS011;46879;45.658;11.814;2022-10-01T08:56:57;7.70;;;3.10;;
60999;SDS011;46879;45.658;11.814;2022-10-01T09:01:58;19.55;;;3.50;;
60999;SDS011;46879;45.658;11.814;2022-10-01T09:07:02;18.48;;;3.17;;
60999;SDS011;46879;45.658;11.814;2022-10-01T09:32:15;11.07;;;2.87;;
60999;SDS011;46879;45.658;11.814;2022-10-01T09:42:24;5.70;;;2.90;;
60999;SDS011;46879;45.658;11.814;2022-10-01T09:47:25;8.68;;;3.45;;
60999;SDS011;46879;45.658;11.814;2022-10-01T09:57:33;10.93;;;2.97;;
60999;SDS011;46879;45.658;11.814;2022-10-01T10:02:39;5.72;;;2.63;;
60999;SDS011;46879;45.658;11.814;2022-10-01T10:07:59;5.55;;;2.75;;
60999;SDS011;46879;45.658;11.814;2022-10-01T10:13:13;6.63;;;2.80;;
60999;SDS011;46879;45.658;11.814;2022-10-01T10:18:19;7.70;;;3.03;;
60999;SDS011;46879;45.658;11.814;2022-10-01T10:23:24;6.70;;;2.83;;
60999;SDS011;46879;45.658;11.814;2022-10-01T10:33:46;6.22;;;2.47;;
60999;SDS011;46879;45.658;11.814;2022-10-01T10:38:48;6.10;;;2.65;;
60999;SDS011;46879;45.658;11.814;2022-10-01T10:43:49;5.47;;;2.65;;
60999;SDS011;46879;45.658;11.814;2022-10-01T10:48:52;5.60;;;2.58;;
60999;SDS011;46879;45.658;11.814;2022-10-01T10:53:57;8.30;;;2.53;;
60999;SDS011;46879;45.658;11.814;2022-10-01T10:59:04;4.60;;;2.65;;
60999;SDS011;46879;45.658;11.814;2022-10-01T11:04:07;5.95;;;2.78;;
60999;SDS011;46879;45.658;11.814;2022-10-01T11:09:17;14.45;;;2.70;;
60999;SDS011;46879;45.658;11.814;2022-10-01T11:40:39;8.30;;;2.60;;
60999;SDS011;46879;45.658;11.814;2022-10-01T11:45:41;3.20;;;2.20;;
60999;SDS011;46879;45.658;11.814;2022-10-01T11:50:43;5.05;;;2.83;;
60999;SDS011;46879;45.658;11.814;2022-10-01T11:55:47;3.67;;;2.28;;
60999;SDS011;46879;45.658;11.814;2022-10-01T12:01:15;4.43;;;2.08;;
60999;SDS011;46879;45.658;11.814;2022-10-01T12:06:31;4.18;;;2.33;;
60999;SDS011;46879;45.658;11.814;2022-10-01T12:11:38;6.32;;;2.55;;
60999;SDS011;46879;45.658;11.814;2022-10-01T12:21:43;5.10;;;2.30;;
60999;SDS011;46879;45.658;11.814;2022-10-01T12:42:12;4.55;;;2.28;;
60999;SDS011;46879;45.658;11.814;2022-10-01T12:47:23;6.85;;;2.10;;
60999;SDS011;46879;45.658;11.814;2022-10-01T13:02:55;3.25;;;2.20;;
60999;SDS011;46879;45.658;11.814;2022-10-01T13:18:09;6.18;;;2.38;;
60999;SDS011;46879;45.658;11.814;2022-10-01T13:33:22;2.70;;;2.03;;
60999;SDS011;46879;45.658;11.814;2022-10-01T13:38:27;4.05;;;1.73;;
60999;SDS011;46879;45.658;11.814;2022-10-01T13:43:30;2.75;;;2.22;;
60999;SDS011;46879;45.658;11.814;2022-10-01T13:48:31;3.25;;;2.40;;
60999;SDS011;46879;45.658;11.814;2022-10-01T13:53:35;7.45;;;2.38;;
60999;SDS011;46879;45.658;11.814;2022-10-01T13:58:41;3.25;;;2.38;;
60999;SDS011;46879;45.658;11.814;2022-10-01T14:04:00;3.42;;;2.20;;
60999;SDS011;46879;45.658;11.814;2022-10-01T14:09:19;5.05;;;2.35;;
60999;SDS011;46879;45.658;11.814;2022-10-01T14:19:43;3.90;;;2.22;;
60999;SDS011;46879;45.658;11.814;2022-10-01T14:24:59;3.95;;;2.50;;
60999;SDS011;46879;45.658;11.814;2022-10-01T14:40:44;5.40;;;2.20;;
60999;SDS011;46879;45.658;11.814;2022-10-01T14:46:03;5.57;;;2.15;;
60999;SDS011;46879;45.658;11.814;2022-10-01T14:51:05;2.90;;;2.20;;
60999;SDS011;46879;45.658;11.814;2022-10-01T14:56:07;4.30;;;2.22;;
60999;SDS011;46879;45.658;11.814;2022-10-01T15:01:12;2.60;;;2.13;;
60999;SDS011;46879;45.658;11.814;2022-10-01T15:06:17;4.00;;;2.17;;
60999;SDS011;46879;45.658;11.814;2022-10-01T15:11:21;4.13;;;2.20;;
60999;SDS011;46879;45.658;11.814;2022-10-01T15:16:23;3.65;;;1.90;;
60999;SDS011;46879;45.658;11.814;2022-10-01T15:21:29;4.47;;;1.90;;
60999;SDS011;46879;45.658;11.814;2022-10-01T15:26:31;2.00;;;1.80;;
60999;SDS011;46879;45.658;11.814;2022-10-01T15:31:32;3.92;;;2.38;;
60999;SDS011;46879;45.658;11.814;2022-10-01T15:36:33;4.13;;;2.22;;
60999;SDS011;46879;45.658;11.814;2022-10-01T15:41:33;2.25;;;1.95;;
60999;SDS011;46879;45.658;11.814;2022-10-01T15:46:34;3.20;;;2.33;;
60999;SDS011;46879;45.658;11.814;2022-10-01T15:51:34;4.20;;;2.17;;
60999;SDS011;46879;45.658;11.814;2022-10-01T15:56:35;3.95;;;2.10;;
60999;SDS011;46879;45.658;11.814;2022-10-01T16:01:38;2.90;;;2.30;;
60999;SDS011;46879;45.658;11.814;2022-10-01T16:06:42;2.38;;;1.90;;
60999;SDS011;46879;45.658;11.814;2022-10-01T16:11:57;4.50;;;1.90;;
60999;SDS011;46879;45.658;11.814;2022-10-01T16:27:19;3.35;;;1.80;;
60999;SDS011;46879;45.658;11.814;2022-10-01T16:32:19;4.03;;;1.92;;
60999;SDS011;46879;45.658;11.814;2022-10-01T16:37:20;4.07;;;2.15;;
60999;SDS011;46879;45.658;11.814;2022-10-01T16:42:20;2.15;;;1.83;;
60999;SDS011;46879;45.658;11.814;2022-10-01T16:47:23;2.83;;;2.05;;
60999;SDS011;46879;45.658;11.814;2022-10-01T16:52:24;3.50;;;1.83;;
60999;SDS011;46879;45.658;11.814;2022-10-01T16:57:24;2.28;;;1.80;;
60999;SDS011;46879;45.658;11.814;2022-10-01T17:02:24;2.65;;;1.65;;
60999;SDS011;46879;45.658;11.814;2022-10-01T17:07:25;2.70;;;1.83;;
60999;SDS011;46879;45.658;11.814;2022-10-01T17:12:25;2.38;;;1.95;;
60999;SDS011;46879;45.658;11.814;2022-10-01T17:17:25;1.90;;;1.63;;
60999;SDS011;46879;45.658;11.814;2022-10-01T17:22:26;4.85;;;1.85;;
60999;SDS011;46879;45.658;11.814;2022-10-01T17:27:26;2.90;;;1.83;;
60999;SDS011;46879;45.658;11.814;2022-10-01T17:32:26;3.78;;;2.15;;
60999;SDS011;46879;45.658;11.814;2022-10-01T17:37:27;2.53;;;1.60;;
60999;SDS011;46879;45.658;11.814;2022-10-01T17:42:27;3.55;;;1.67;;
60999;SDS011;46879;45.658;11.814;2022-10-01T17:47:27;4.80;;;1.88;;
60999;SDS011;46879;45.658;11.814;2022-10-01T17:52:28;3.03;;;1.60;;
60999;SDS011;46879;45.658;11.814;2022-10-01T17:57:28;2.00;;;1.50;;
60999;SDS011;46879;45.658;11.814;2022-10-01T18:02:29;2.13;;;1.35;;
60999;SDS011;46879;45.658;11.814;2022-10-01T18:07:30;1.73;;;1.60;;
60999;SDS011;46879;45.658;11.814;2022-10-01T18:12:30;4.05;;;1.80;;
60999;SDS011;46879;45.658;11.814;2022-10-01T18:17:32;3.50;;;1.88;;
60999;SDS011;46879;45.658;11.814;2022-10-01T18:22:34;9.48;;;1.90;;
60999;SDS011;46879;45.658;11.814;2022-10-01T18:27:35;5.43;;;2.03;;
60999;SDS011;46879;45.658;11.814;2022-10-01T18:32:36;13.27;;;4.50;;
60999;SDS011;46879;45.658;11.814;2022-10-01T18:37:40;8.68;;;5.78;;
60999;SDS011;46879;45.658;11.814;2022-10-01T18:42:50;11.48;;;5.40;;
60999;SDS011;46879;45.658;11.814;2022-10-01T18:47:59;14.45;;;6.20;;
60999;SDS011;46879;45.658;11.814;2022-10-01T19:08:27;11.98;;;6.97;;
60999;SDS011;46879;45.658;11.814;2022-10-01T19:14:20;9.13;;;5.80;;
60999;SDS011;46879;45.658;11.814;2022-10-01T19:19:01;9.30;;;5.20;;
60999;SDS011;46879;45.658;11.814;2022-10-01T19:34:15;8.75;;;5.03;;
60999;SDS011;46879;45.658;11.814;2022-10-01T19:39:19;24.08;;;6.45;;
60999;SDS011;46879;45.658;11.814;2022-10-01T19:49:39;15.60;;;5.65;;
60999;SDS011;46879;45.658;11.814;2022-10-01T19:54:42;12.60;;;5.10;;
60999;SDS011;46879;45.658;11.814;2022-10-01T19:59:42;16.48;;;5.43;;
60999;SDS011;46879;45.658;11.814;2022-10-01T20:04:45;25.38;;;5.53;;
60999;SDS011;46879;45.658;11.814;2022-10-01T20:09:55;19.13;;;5.32;;
60999;SDS011;46879;45.658;11.814;2022-10-01T20:15:02;15.10;;;5.13;;
60999;SDS011;46879;45.658;11.814;2022-10-01T20:20:25;12.43;;;4.40;;
60999;SDS011;46879;45.658;11.814;2022-10-01T20:30:29;15.70;;;4.38;;
60999;SDS011;46879;45.658;11.814;2022-10-01T20:40:52;13.85;;;4.68;;
60999;SDS011;46879;45.658;11.814;2022-10-01T20:45:54;6.25;;;4.07;;
60999;SDS011;46879;45.658;11.814;2022-10-01T20:50:59;6.25;;;3.80;;
60999;SDS011;46879;45.658;11.814;2022-10-01T20:56:02;8.77;;;3.90;;
60999;SDS011;46879;45.658;11.814;2022-10-01T21:01:07;6.07;;;3.60;;
60999;SDS011;46879;45.658;11.814;2022-10-01T21:06:13;6.65;;;4.13;;
60999;SDS011;46879;45.658;11.814;2022-10-01T21:11:25;7.32;;;4.07;;
60999;SDS011;46879;45.658;11.814;2022-10-01T21:16:30;23.02;;;4.57;;
60999;SDS011;46879;45.658;11.814;2022-10-01T21:21:36;6.82;;;3.67;;
60999;SDS011;46879;45.658;11.814;2022-10-01T21:32:05;6.60;;;3.70;;
60999;SDS011;46879;45.658;11.814;2022-10-01T21:42:04;6.68;;;3.47;;
60999;SDS011;46879;45.658;11.814;2022-10-01T21:52:12;4.95;;;3.58;;
60999;SDS011;46879;45.658;11.814;2022-10-01T21:57:31;10.88;;;3.92;;
60999;SDS011;46879;45.658;11.814;2022-10-01T22:07:55;8.82;;;3.55;;
60999;SDS011;46879;45.658;11.814;2022-10-01T22:13:00;9.65;;;4.10;;
60999;SDS011;46879;45.658;11.814;2022-10-01T22:18:01;8.65;;;3.45;;
60999;SDS011;46879;45.658;11.814;2022-10-01T22:23:05;8.80;;;4.05;;
60999;SDS011;46879;45.658;11.814;2022-10-01T22:28:09;7.97;;;3.38;;
60999;SDS011;46879;45.658;11.814;2022-10-01T22:33:19;4.68;;;3.13;;
60999;SDS011;46879;45.658;11.814;2022-10-01T22:38:32;6.95;;;3.30;;
60999;SDS011;46879;45.658;11.814;2022-10-01T22:43:34;12.18;;;3.72;;
60999;SDS011;46879;45.658;11.814;2022-10-01T22:53:48;9.10;;;3.50;;
60999;SDS011;46879;45.658;11.814;2022-10-01T23:04:01;4.13;;;2.67;;
60999;SDS011;46879;45.658;11.814;2022-10-01T23:09:07;5.43;;;3.60;;
60999;SDS011;46879;45.658;11.814;2022-10-01T23:14:14;4.10;;;3.15;;
60999;SDS011;46879;45.658;11.814;2022-10-01T23:29:43;4.40;;;3.00;;
60999;SDS011;46879;45.658;11.814;2022-10-01T23:49:57;4.05;;;2.88;;
60999;SDS011;46879;45.658;11.814;2022-10-01T23:55:20;3.95;;;2.83;;
